Time;durP1;ratioP1;P1;durP2;ratioP2;P2;SDS_P1;SDS_P2;PMS_P1;PMS_P2;Temp;Humidity;BMP_temperature;BMP_pressure;BME280_temperature;BME280_humidity;BME280_pressure;Samples;Min_cycle;Max_cycle;Signal;HPM_P1;HPM_P2
2021/05/17 00:00:16;;;;;;;1.97;1.10;;;13.80;94.60;;;;;;10490069;28;20739;-76
2021/05/17 00:05:19;;;;;;;1.50;0.97;;;13.80;94.50;;;;;;10481272;28;20264;-76
2021/05/17 00:10:22;;;;;;;1.27;1.10;;;13.80;94.30;;;;;;10493709;28;20242;-76
2021/05/17 00:15:24;;;;;;;1.60;1.20;;;13.80;93.80;;;;;;10491063;28;20228;-76
2021/05/17 00:20:26;;;;;;;1.53;1.27;;;13.70;93.90;;;;;;10473236;28;20200;-76
2021/05/17 00:25:29;;;;;;;1.30;1.20;;;13.70;93.80;;;;;;10487670;28;20767;-76
2021/05/17 00:30:32;;;;;;;1.23;1.13;;;13.70;94.00;;;;;;10496356;28;20228;-76
2021/05/17 00:35:34;;;;;;;1.23;1.10;;;13.70;93.90;;;;;;10497089;28;20688;-76
2021/05/17 00:40:37;;;;;;;1.73;1.00;;;13.60;93.90;;;;;;10495079;28;20635;-76
2021/05/17 00:45:39;;;;;;;2.03;1.20;;;13.60;93.60;;;;;;10494917;28;20793;-76
2021/05/17 00:50:41;;;;;;;1.00;1.00;;;13.50;94.30;;;;;;10476513;28;20258;-76
2021/05/17 00:55:45;;;;;;;1.27;0.90;;;13.50;94.50;;;;;;10495997;28;20730;-76
2021/05/17 01:00:48;;;;;;;2.10;1.10;;;13.50;93.90;;;;;;10490762;28;20255;-76
2021/05/17 01:05:51;;;;;;;1.97;1.13;;;13.50;93.50;;;;;;10491722;28;20216;-76
2021/05/17 01:10:59;;;;;;;2.20;1.07;;;13.50;93.70;;;;;;10494366;28;20266;-76
2021/05/17 01:16:06;;;;;;;2.70;1.10;;;13.50;93.90;;;;;;10494835;28;20747;-76
2021/05/17 01:21:08;;;;;;;1.13;1.00;;;13.50;93.70;;;;;;10494343;28;20197;-76
2021/05/17 01:26:14;;;;;;;1.17;1.07;;;13.40;93.60;;;;;;10493167;28;20816;-76
2021/05/17 01:31:16;;;;;;;2.90;1.03;;;13.40;93.90;;;;;;10493494;28;20252;-76
2021/05/17 01:36:19;;;;;;;1.30;1.20;;;13.30;93.90;;;;;;10492613;28;20211;-76
2021/05/17 01:41:24;;;;;;;1.60;0.97;;;13.30;93.90;;;;;;10494028;28;20284;-76
2021/05/17 01:46:29;;;;;;;0.80;0.80;;;13.20;94.00;;;;;;10494349;28;20262;-76
2021/05/17 01:51:48;;;;;;;1.03;1.03;;;13.20;94.20;;;;;;10492802;28;20224;-76
2021/05/17 01:56:52;;;;;;;1.43;1.00;;;13.10;94.20;;;;;;10492682;28;20201;-76
2021/05/17 02:02:01;;;;;;;1.63;1.30;;;13.10;94.20;;;;;;10492672;28;20253;-76
2021/05/17 02:07:06;;;;;;;1.90;1.20;;;13.20;94.00;;;;;;10492758;28;20578;-76
2021/05/17 02:12:12;;;;;;;1.43;1.20;;;13.20;94.20;;;;;;10475805;28;20228;-76
2021/05/17 02:17:25;;;;;;;0.90;0.90;;;13.10;93.90;;;;;;10493320;28;20196;-76
2021/05/17 02:22:28;;;;;;;0.90;0.90;;;13.10;94.10;;;;;;10475986;28;20236;-76
2021/05/17 02:27:49;;;;;;;2.97;1.60;;;13.10;93.70;;;;;;10493417;28;20208;-76
2021/05/17 02:32:52;;;;;;;1.33;1.23;;;13.10;93.40;;;;;;10492093;28;20220;-76
2021/05/17 02:38:02;;;;;;;1.30;1.30;;;13.10;93.70;;;;;;10492023;28;20227;-76
2021/05/17 02:43:08;;;;;;;1.33;1.23;;;13.10;93.70;;;;;;10491701;28;20224;-76
2021/05/17 02:48:26;;;;;;;1.20;1.10;;;13.10;93.50;;;;;;10488320;28;20266;-76
2021/05/17 02:53:47;;;;;;;1.53;1.00;;;13.10;93.70;;;;;;10499569;28;20259;-76
2021/05/17 02:58:52;;;;;;;1.10;1.00;;;13.10;93.50;;;;;;10476174;28;20283;-76
2021/05/17 03:03:57;;;;;;;2.20;1.10;;;13.10;93.60;;;;;;10500209;28;20216;-76
2021/05/17 03:09:05;;;;;;;1.33;0.70;;;13.10;93.10;;;;;;10499151;28;20224;-76
2021/05/17 03:14:15;;;;;;;2.63;1.43;;;13.20;93.00;;;;;;10500031;28;20217;-76
2021/05/17 03:19:22;;;;;;;1.30;1.20;;;13.20;93.00;;;;;;10498598;28;20245;-76
2021/05/17 03:24:27;;;;;;;1.40;1.30;;;13.20;92.60;;;;;;10494306;28;20227;-76
2021/05/17 03:29:30;;;;;;;1.43;1.33;;;13.10;92.80;;;;;;10481465;28;20718;-76
2021/05/17 03:34:31;;;;;;;1.47;1.37;;;13.10;93.20;;;;;;10488732;28;20220;-76
2021/05/17 03:39:33;;;;;;;1.87;1.40;;;13.00;93.30;;;;;;10497375;28;20202;-76
2021/05/17 03:44:36;;;;;;;2.80;2.60;;;13.00;93.20;;;;;;10478878;28;20216;-76
2021/05/17 03:49:38;;;;;;;2.20;1.10;;;12.90;93.20;;;;;;10489554;28;20247;-76
2021/05/17 03:54:39;;;;;;;2.77;1.70;;;12.80;93.50;;;;;;10493317;22;20226;-82
2021/05/17 03:59:45;;;;;;;1.47;1.37;;;12.80;93.70;;;;;;10451832;28;20212;-82
2021/05/17 04:04:54;;;;;;;1.70;1.60;;;12.80;93.60;;;;;;10434467;28;20214;-84
2021/05/17 04:15:16;;;;;;;1.63;1.00;;;12.90;93.30;;;;;;10454141;28;20726;-81
2021/05/17 04:20:18;;;;;;;1.60;1.37;;;12.90;93.40;;;;;;10495649;28;20189;-82
2021/05/17 04:25:20;;;;;;;1.60;1.47;;;12.90;93.60;;;;;;10439842;28;20229;-82
2021/05/17 04:30:23;;;;;;;1.63;1.37;;;13.00;93.20;;;;;;10470224;28;20621;-82
2021/05/17 04:35:24;;;;;;;1.60;1.50;;;13.10;93.10;;;;;;10463196;28;20599;-82
2021/05/17 04:40:26;;;;;;;1.13;1.13;;;13.10;93.00;;;;;;10478758;28;20243;-83
2021/05/17 04:45:29;;;;;;;2.63;1.10;;;13.20;92.80;;;;;;10458042;28;20299;-84
2021/05/17 04:50:30;;;;;;;3.17;1.37;;;13.20;92.70;;;;;;10444829;28;20236;-82
2021/05/17 04:55:32;;;;;;;1.30;1.20;;;13.30;92.90;;;;;;10451435;28;20237;-82
2021/05/17 05:00:35;;;;;;;1.20;1.10;;;13.40;92.70;;;;;;10452946;28;20208;-81
2021/05/17 05:05:36;;;;;;;1.47;1.10;;;13.40;92.60;;;;;;10457121;28;20649;-82
2021/05/17 05:10:39;;;;;;;1.10;1.03;;;13.40;92.10;;;;;;10447646;28;20216;-83
2021/05/17 05:15:42;;;;;;;1.20;1.10;;;13.30;91.70;;;;;;10435182;28;20229;-82
2021/05/17 05:20:43;;;;;;;1.00;0.90;;;13.30;91.70;;;;;;10445877;28;20201;-81
2021/05/17 05:26:25;;;;;;;1.00;1.00;;;13.20;91.60;;;;;;10478102;28;20217;-81
2021/05/17 05:31:25;;;;;;;1.10;1.00;;;13.30;91.00;;;;;;10485604;28;20327;-82
2021/05/17 05:36:27;;;;;;;1.27;1.00;;;13.20;90.70;;;;;;10451125;28;20213;-82
2021/05/17 05:41:30;;;;;;;1.17;1.07;;;13.40;90.90;;;;;;10464989;28;20197;-82
2021/05/17 05:46:33;;;;;;;0.77;0.63;;;13.60;90.00;;;;;;10437332;28;20304;-82
2021/05/17 05:51:34;;;;;;;1.40;0.80;;;13.70;90.00;;;;;;10461820;28;20240;-81
2021/05/17 05:56:36;;;;;;;1.40;1.30;;;13.90;89.40;;;;;;10448939;28;20268;-82
2021/05/17 06:01:38;;;;;;;1.00;1.00;;;14.00;89.80;;;;;;10445458;28;20578;-82
2021/05/17 06:06:40;;;;;;;1.73;1.13;;;14.10;88.60;;;;;;10465830;28;20201;-82
2021/05/17 06:11:42;;;;;;;1.50;0.97;;;14.10;89.20;;;;;;10449540;28;20274;-82
2021/05/17 06:16:45;;;;;;;2.70;0.97;;;14.20;89.90;;;;;;10425816;28;20241;-82
2021/05/17 06:21:48;;;;;;;1.30;1.20;;;14.30;87.70;;;;;;10448870;28;20233;-81
2021/05/17 06:26:50;;;;;;;0.90;0.90;;;14.40;87.90;;;;;;10453794;28;20219;-81
2021/05/17 06:31:54;;;;;;;2.40;1.17;;;14.50;88.10;;;;;;10472172;28;20225;-82
2021/05/17 06:36:56;;;;;;;1.17;1.00;;;14.50;87.10;;;;;;10469586;28;20212;-82
2021/05/17 06:41:58;;;;;;;4.73;1.00;;;14.60;86.80;;;;;;10465830;28;20238;-82
2021/05/17 06:47:00;;;;;;;1.03;0.93;;;14.70;87.10;;;;;;10451631;28;20255;-82
2021/05/17 06:52:03;;;;;;;2.20;1.10;;;15.00;87.70;;;;;;10457109;28;20225;-82
2021/05/17 06:57:10;;;;;;;1.50;1.13;;;15.50;85.70;;;;;;10451935;28;20263;-82
2021/05/17 07:02:18;;;;;;;0.80;0.70;;;15.80;84.90;;;;;;10463938;28;20217;-82
2021/05/17 07:07:23;;;;;;;1.03;1.00;;;15.90;83.70;;;;;;10441540;28;20645;-82
2021/05/17 07:12:25;;;;;;;1.23;1.00;;;15.80;83.40;;;;;;10425900;28;20664;-82
2021/05/17 07:17:28;;;;;;;1.77;1.37;;;15.70;84.10;;;;;;10468914;28;20209;-82
2021/05/17 07:27:49;;;;;;;0.90;0.90;;;15.80;85.90;;;;;;10477846;28;20213;-82
2021/05/17 07:32:51;;;;;;;1.17;1.10;;;16.00;84.80;;;;;;10465038;28;20308;-82
2021/05/17 07:37:53;;;;;;;1.17;1.07;;;16.20;83.70;;;;;;10476060;28;20221;-82
2021/05/17 07:42:55;;;;;;;0.87;0.87;;;16.40;83.60;;;;;;10487958;28;20220;-82
2021/05/17 07:47:57;;;;;;;0.93;0.93;;;16.70;80.90;;;;;;10487966;28;20244;-82
2021/05/17 07:52:59;;;;;;;2.77;2.57;;;16.90;80.40;;;;;;10470286;28;20232;-82
2021/05/17 07:58:01;;;;;;;1.30;1.17;;;17.10;78.20;;;;;;10469335;28;20197;-82
2021/05/17 08:03:04;;;;;;;1.20;0.80;;;17.20;76.20;;;;;;10488464;28;20252;-82
2021/05/17 08:08:06;;;;;;;1.93;1.07;;;17.40;75.00;;;;;;10489134;28;20240;-82
2021/05/17 08:13:08;;;;;;;1.30;1.20;;;17.70;74.20;;;;;;10452569;28;20357;-82
2021/05/17 08:18:10;;;;;;;1.40;1.30;;;18.00;73.60;;;;;;10431132;28;20198;-83
2021/05/17 08:23:15;;;;;;;1.50;1.40;;;18.10;73.50;;;;;;10463134;28;20282;-83
2021/05/17 08:28:16;;;;;;;1.20;1.20;;;18.60;73.20;;;;;;10443098;28;20244;-83
2021/05/17 08:33:19;;;;;;;1.47;1.37;;;19.50;69.00;;;;;;10441055;28;20221;-83
2021/05/17 08:38:21;;;;;;;2.00;1.20;;;19.80;68.30;;;;;;10458645;28;20213;-83
2021/05/17 08:43:22;;;;;;;1.50;1.40;;;19.90;65.70;;;;;;10446033;28;20654;-83
2021/05/17 08:48:25;;;;;;;0.90;0.90;;;19.70;66.60;;;;;;10460723;28;20248;-84
2021/05/17 08:53:26;;;;;;;1.10;1.10;;;19.50;68.10;;;;;;10463089;28;20224;-83
2021/05/17 08:58:28;;;;;;;0.80;0.80;;;19.60;65.90;;;;;;10456078;28;20230;-83
2021/05/17 09:03:31;;;;;;;1.10;1.10;;;19.80;64.10;;;;;;10445694;28;20252;-84
2021/05/17 09:08:40;;;;;;;1.20;1.20;;;19.70;65.50;;;;;;10437265;28;20685;-82
2021/05/17 09:13:42;;;;;;;1.20;1.10;;;19.50;65.70;;;;;;10448275;28;20247;-83
2021/05/17 09:18:44;;;;;;;1.83;1.00;;;19.70;65.90;;;;;;10431155;28;20205;-84
2021/05/17 09:23:48;;;;;;;1.10;1.10;;;20.40;64.90;;;;;;10451039;28;20229;-83
2021/05/17 09:28:51;;;;;;;1.43;1.30;;;20.10;65.60;;;;;;10463765;28;20221;-83
2021/05/17 09:33:55;;;;;;;1.37;1.27;;;19.70;72.70;;;;;;10445404;28;20278;-83
2021/05/17 09:39:04;;;;;;;1.50;1.40;;;19.60;70.00;;;;;;10405084;28;20198;-84
2021/05/17 09:44:07;;;;;;;1.20;1.20;;;19.70;65.70;;;;;;10424476;28;20226;-84
2021/05/17 09:49:09;;;;;;;1.77;1.10;;;19.70;65.70;;;;;;10458301;28;20217;-83
2021/05/17 09:54:12;;;;;;;0.97;0.97;;;19.60;65.90;;;;;;10453987;23;20256;-77
2021/05/17 09:59:17;;;;;;;1.27;1.10;;;19.40;66.90;;;;;;10433471;28;20289;-77
2021/05/17 10:04:30;;;;;;;1.30;1.20;;;19.20;68.60;;;;;;10434103;28;20779;-77
2021/05/17 10:09:32;;;;;;;1.33;1.30;;;18.90;68.40;;;;;;10451046;28;20236;-77
2021/05/17 10:14:34;;;;;;;1.57;1.47;;;18.60;70.00;;;;;;10451027;28;20227;-77
2021/05/17 10:19:37;;;;;;;1.13;1.03;;;18.80;69.60;;;;;;10451200;28;20197;-77
2021/05/17 10:24:39;;;;;;;2.30;1.30;;;19.00;67.50;;;;;;10444973;28;20404;-77
2021/05/17 10:29:41;;;;;;;1.43;1.33;;;19.00;68.40;;;;;;10451551;28;20699;-77
2021/05/17 10:34:51;;;;;;;1.20;1.20;;;19.00;68.20;;;;;;10451517;28;20221;-77
2021/05/17 10:40:03;;;;;;;1.60;1.50;;;19.10;68.00;;;;;;10451647;28;20665;-77
2021/05/17 10:50:30;;;;;;;2.60;2.40;;;17.70;84.80;;;;;;10451086;28;20279;-76
2021/05/17 10:55:35;;;;;;;2.00;1.90;;;16.80;90.90;;;;;;10449791;28;20727;-77
2021/05/17 11:00:38;;;;;;;2.40;2.27;;;16.20;93.20;;;;;;10451704;28;20236;-77
2021/05/17 11:05:42;;;;;;;2.20;2.00;;;15.80;96.30;;;;;;10450382;28;20225;-76
2021/05/17 11:10:45;;;;;;;1.90;1.80;;;15.40;96.60;;;;;;10453336;28;20221;-77
2021/05/17 11:15:59;;;;;;;2.60;1.57;;;15.20;96.60;;;;;;10458498;28;20272;-76
2021/05/17 11:21:04;;;;;;;1.70;1.60;;;15.10;97.80;;;;;;10459026;28;20224;-76
2021/05/17 11:26:09;;;;;;;2.50;1.90;;;15.30;95.30;;;;;;10458510;28;20221;-76
2021/05/17 11:31:15;;;;;;;1.30;1.30;;;15.50;94.50;;;;;;10434018;28;20586;-77
2021/05/17 11:36:20;;;;;;;1.50;1.40;;;15.60;95.10;;;;;;10444712;28;20213;-77
2021/05/17 11:41:21;;;;;;;1.50;1.37;;;15.60;94.20;;;;;;10440571;28;20197;-77
2021/05/17 11:46:23;;;;;;;1.63;1.23;;;15.70;95.40;;;;;;10456437;28;20225;-77
2021/05/17 11:51:26;;;;;;;2.33;1.30;;;15.90;95.10;;;;;;10457773;28;20638;-77
2021/05/17 11:56:36;;;;;;;1.90;1.20;;;15.80;95.80;;;;;;10430231;28;20590;-77
2021/05/17 12:01:39;;;;;;;1.53;1.40;;;15.80;97.50;;;;;;10439809;28;20205;-77
2021/05/17 12:06:44;;;;;;;1.70;1.23;;;15.60;97.80;;;;;;10456960;28;20221;-77
2021/05/17 12:11:50;;;;;;;1.77;1.03;;;15.60;94.70;;;;;;10456803;28;20654;-76
2021/05/17 12:17:10;;;;;;;1.30;1.10;;;15.70;94.40;;;;;;10442149;28;20321;-77
2021/05/17 12:22:18;;;;;;;0.83;0.83;;;15.90;92.20;;;;;;10455537;28;20208;-77
2021/05/17 12:27:21;;;;;;;2.53;1.33;;;16.00;91.30;;;;;;10452487;28;20197;-77
2021/05/17 12:32:25;;;;;;;0.80;0.80;;;16.10;91.20;;;;;;10456213;28;20233;-76
2021/05/17 12:37:31;;;;;;;1.00;1.00;;;16.10;88.20;;;;;;10455138;28;20284;-77
2021/05/17 12:42:32;;;;;;;1.00;1.00;;;16.10;87.40;;;;;;10445671;28;20213;-77
2021/05/17 12:47:38;;;;;;;1.30;1.30;;;16.20;88.00;;;;;;10453709;28;20205;-77
2021/05/17 12:52:41;;;;;;;0.93;0.90;;;16.50;86.20;;;;;;10454902;28;20308;-77
2021/05/17 12:57:45;;;;;;;1.33;0.90;;;16.80;82.80;;;;;;10454265;28;20544;-77
2021/05/17 13:03:07;;;;;;;1.13;0.87;;;17.10;82.90;;;;;;10454378;28;20592;-79
2021/05/17 13:08:10;;;;;;;1.00;1.00;;;17.30;81.10;;;;;;10450722;28;20239;-78
2021/05/17 13:13:11;;;;;;;1.07;1.07;;;17.50;79.80;;;;;;10454061;28;20296;-78
2021/05/17 13:18:13;;;;;;;1.00;1.00;;;17.70;81.70;;;;;;10452302;28;20201;-78
2021/05/17 13:33:57;;;;;;;1.63;0.97;;;17.90;76.70;;;;;;10453216;28;20213;-77
2021/05/17 13:39:00;;;;;;;0.90;0.90;;;17.90;76.80;;;;;;10453079;28;20200;-77
2021/05/17 13:44:02;;;;;;;1.00;1.00;;;18.10;73.20;;;;;;10451396;28;20672;-77
2021/05/17 13:49:04;;;;;;;1.20;1.10;;;18.30;76.70;;;;;;10452956;28;20566;-77
2021/05/17 13:54:07;;;;;;;1.43;1.10;;;18.30;76.20;;;;;;10452782;28;20225;-77
2021/05/17 13:59:08;;;;;;;1.17;1.07;;;18.30;77.40;;;;;;10453027;28;20193;-77
2021/05/17 14:04:10;;;;;;;1.10;1.00;;;18.40;73.80;;;;;;10452642;28;20300;-77
2021/05/17 14:09:13;;;;;;;1.10;0.80;;;18.10;78.80;;;;;;10452454;28;20231;-77
2021/05/17 14:14:15;;;;;;;0.90;0.90;;;17.90;76.70;;;;;;10451885;28;20217;-77
2021/05/17 14:19:17;;;;;;;0.90;0.90;;;17.70;75.00;;;;;;10450556;28;20225;-77
2021/05/17 14:24:19;;;;;;;0.93;0.93;;;17.70;73.30;;;;;;10450765;28;20219;-77
2021/05/17 14:29:21;;;;;;;1.23;1.03;;;17.80;72.70;;;;;;10451594;28;20291;-77
2021/05/17 14:34:23;;;;;;;1.47;1.00;;;17.90;73.30;;;;;;10452118;28;20221;-77
2021/05/17 14:39:26;;;;;;;0.93;0.60;;;17.60;75.40;;;;;;10452087;28;20201;-77
2021/05/17 14:44:27;;;;;;;1.50;1.10;;;17.20;82.00;;;;;;10452740;28;20741;-77
2021/05/17 14:49:29;;;;;;;1.00;1.00;;;16.50;88.40;;;;;;10460205;28;20216;-77
2021/05/17 14:54:32;;;;;;;1.50;1.30;;;16.00;91.90;;;;;;10458126;28;20316;-77
2021/05/17 14:59:33;;;;;;;1.10;1.00;;;15.60;93.60;;;;;;10458650;28;20189;-77
2021/05/17 15:04:35;;;;;;;2.40;1.43;;;15.50;95.20;;;;;;10459574;28;20232;-77
2021/05/17 15:09:38;;;;;;;0.90;0.90;;;15.60;95.60;;;;;;10458720;28;20316;-77
2021/05/17 15:14:40;;;;;;;2.03;1.00;;;15.70;94.10;;;;;;10459262;28;20296;-77
2021/05/17 15:19:41;;;;;;;0.80;0.80;;;15.80;92.90;;;;;;10458199;28;20237;-77
2021/05/17 15:24:44;;;;;;;1.70;1.60;;;15.80;92.40;;;;;;10458515;28;20216;-77
2021/05/17 15:29:46;;;;;;;0.90;0.90;;;16.00;92.30;;;;;;10457415;28;20213;-76
2021/05/17 15:34:47;;;;;;;0.97;0.97;;;16.20;92.00;;;;;;10456694;28;20249;-76
2021/05/17 15:39:50;;;;;;;0.90;0.90;;;16.40;91.90;;;;;;10453397;28;20189;-76
2021/05/17 15:44:51;;;;;;;0.90;0.90;;;16.70;90.20;;;;;;10456282;28;20635;-76
2021/05/17 15:49:53;;;;;;;4.83;1.30;;;16.80;87.20;;;;;;10453836;28;20213;-76
2021/05/17 15:54:55;;;;;;;0.93;0.93;;;16.70;83.80;;;;;;10460087;22;20252;-81
2021/05/17 15:59:57;;;;;;;0.80;0.80;;;16.70;85.80;;;;;;10461166;28;20225;-82
2021/05/17 16:04:59;;;;;;;2.03;0.93;;;16.70;86.10;;;;;;10443411;28;20585;-82
2021/05/17 16:10:01;;;;;;;1.10;1.00;;;16.70;87.80;;;;;;10444435;28;20216;-83
2021/05/17 16:15:07;;;;;;;1.07;1.00;;;16.80;87.00;;;;;;10463563;28;20311;-83
2021/05/17 16:25:31;;;;;;;0.90;0.90;;;16.70;86.00;;;;;;10446223;28;20230;-83
2021/05/17 16:30:33;;;;;;;0.87;0.83;;;16.50;85.10;;;;;;10450536;28;20248;-83
2021/05/17 16:35:35;;;;;;;1.20;1.20;;;16.50;84.70;;;;;;10469584;28;20246;-83
2021/05/17 16:40:37;;;;;;;1.60;1.50;;;16.40;83.70;;;;;;10435396;28;20201;-82
2021/05/17 16:45:39;;;;;;;1.13;1.07;;;16.30;83.30;;;;;;10437752;28;20260;-83
2021/05/17 16:50:41;;;;;;;1.00;1.00;;;16.40;81.80;;;;;;10459598;28;20271;-80
2021/05/17 16:55:44;;;;;;;1.53;1.37;;;16.20;80.50;;;;;;10440792;28;20251;-82
2021/05/17 17:00:47;;;;;;;1.30;1.30;;;16.10;81.60;;;;;;10438739;28;20201;-82
2021/05/17 17:05:48;;;;;;;1.10;1.10;;;15.90;80.00;;;;;;10452013;28;20227;-81
2021/05/17 17:10:51;;;;;;;1.30;1.20;;;15.80;81.30;;;;;;10435921;28;20232;-81
2021/05/17 17:15:52;;;;;;;1.33;1.33;;;15.90;84.00;;;;;;10449326;28;20529;-82
2021/05/17 17:20:55;;;;;;;2.60;1.53;;;15.90;83.90;;;;;;10464112;28;20201;-82
2021/05/17 17:25:57;;;;;;;1.80;1.70;;;15.90;85.40;;;;;;10443632;28;20676;-82
2021/05/17 17:30:59;;;;;;;1.10;1.00;;;16.00;83.80;;;;;;10458399;28;20252;-82
2021/05/17 17:36:01;;;;;;;1.27;1.10;;;16.10;81.30;;;;;;10459351;28;20216;-82
2021/05/17 17:41:03;;;;;;;1.47;1.30;;;16.10;83.90;;;;;;10426141;28;20205;-81
2021/05/17 17:46:06;;;;;;;1.20;1.10;;;16.10;81.80;;;;;;10468922;28;20231;-81
2021/05/17 17:51:07;;;;;;;1.43;1.40;;;16.00;83.90;;;;;;10479723;28;20948;-82
2021/05/17 17:56:10;;;;;;;1.40;1.30;;;15.90;82.70;;;;;;10434219;28;20251;-81
2021/05/17 18:01:12;;;;;;;2.80;1.40;;;15.80;83.30;;;;;;10415466;28;20205;-82
2021/05/17 18:06:13;;;;;;;1.93;1.60;;;15.70;83.30;;;;;;10438452;28;20263;-83
2021/05/17 18:11:17;;;;;;;1.20;1.10;;;15.60;81.30;;;;;;10478642;28;20312;-83
2021/05/17 18:16:20;;;;;;;3.77;1.50;;;15.40;83.00;;;;;;10434154;28;20217;-82
2021/05/17 18:27:02;;;;;;;3.60;1.40;;;15.40;82.90;;;;;;10433993;28;20233;-84
2021/05/17 18:32:07;;;;;;;1.67;1.57;;;15.30;83.80;;;;;;10418432;28;20286;-83
2021/05/17 18:37:09;;;;;;;2.07;1.43;;;15.20;83.80;;;;;;10416667;28;20225;-82
2021/05/17 18:42:13;;;;;;;1.53;1.43;;;15.10;84.70;;;;;;10421161;28;20375;-81
2021/05/17 18:47:18;;;;;;;1.37;1.33;;;15.00;84.60;;;;;;10415352;28;20731;-83
2021/05/17 18:52:19;;;;;;;1.60;1.50;;;14.90;85.30;;;;;;10418815;28;20701;-82
2021/05/17 18:57:22;;;;;;;1.77;1.70;;;14.80;85.80;;;;;;10415693;28;20328;-83
2021/05/17 19:02:24;;;;;;;1.43;1.20;;;14.70;87.00;;;;;;10405752;28;20631;-82
2021/05/17 19:07:26;;;;;;;1.30;1.20;;;14.60;87.80;;;;;;10417366;28;20285;-81
2021/05/17 19:12:29;;;;;;;1.20;1.20;;;14.50;88.40;;;;;;10411661;28;20290;-82
2021/05/17 19:17:30;;;;;;;1.30;1.20;;;14.40;89.10;;;;;;10441037;28;20197;-82
2021/05/17 19:22:33;;;;;;;1.27;1.17;;;14.30;89.80;;;;;;10443457;28;20237;-83
2021/05/17 19:27:35;;;;;;;2.10;1.43;;;14.30;89.90;;;;;;10414992;28;20213;-83
2021/05/17 19:32:37;;;;;;;1.47;1.17;;;14.30;90.10;;;;;;10416129;28;20252;-82
2021/05/17 19:37:39;;;;;;;2.07;1.50;;;14.20;90.40;;;;;;10420704;28;20280;-83
2021/05/17 19:42:46;;;;;;;1.10;1.10;;;14.20;90.30;;;;;;10428380;28;20193;-83
2021/05/17 19:47:47;;;;;;;1.20;1.10;;;14.10;90.70;;;;;;10412485;28;20930;-83
2021/05/17 19:52:49;;;;;;;1.57;0.97;;;14.10;91.10;;;;;;10444080;28;20273;-82
2021/05/17 19:57:52;;;;;;;2.00;1.17;;;14.10;91.40;;;;;;10393794;28;20373;-82
2021/05/17 20:02:59;;;;;;;1.93;1.60;;;14.20;91.90;;;;;;10410960;28;20249;-82
2021/05/17 20:08:01;;;;;;;5.13;2.90;;;14.20;92.60;;;;;;10415039;28;20256;-83
2021/05/17 20:13:04;;;;;;;1.60;1.33;;;14.20;94.00;;;;;;10400560;28;20274;-82
2021/05/17 20:18:05;;;;;;;2.10;2.00;;;14.10;95.40;;;;;;10391655;28;20206;-84
2021/05/17 20:23:07;;;;;;;2.70;2.50;;;13.80;97.00;;;;;;10400611;28;20245;-81
2021/05/17 20:28:12;;;;;;;2.63;2.43;;;13.60;98.50;;;;;;10396684;28;20209;-82
2021/05/17 20:33:19;;;;;;;2.40;2.30;;;13.30;99.90;;;;;;10395941;28;20233;-81
2021/05/17 20:38:24;;;;;;;2.53;2.33;;;13.10;99.90;;;;;;10391504;28;20329;-82
2021/05/17 20:43:29;;;;;;;2.23;2.13;;;12.90;99.90;;;;;;10400003;28;20225;-82
2021/05/17 20:48:31;;;;;;;2.90;2.70;;;12.80;99.90;;;;;;10417940;28;20207;-82
2021/05/17 20:53:33;;;;;;;2.40;2.30;;;12.70;99.90;;;;;;10412602;28;20323;-84
2021/05/17 20:58:35;;;;;;;2.20;2.10;;;12.60;99.90;;;;;;10414999;28;20566;-83
2021/05/17 21:03:37;;;;;;;2.33;2.07;;;12.60;99.90;;;;;;10424099;28;20225;-83
2021/05/17 21:08:39;;;;;;;2.53;2.20;;;12.50;99.90;;;;;;10413638;28;20227;-82
2021/05/17 21:13:41;;;;;;;1.87;1.73;;;12.50;99.90;;;;;;10429341;28;20294;-83
2021/05/17 21:18:43;;;;;;;2.50;2.10;;;12.50;99.90;;;;;;10429805;28;20201;-82
2021/05/17 21:23:45;;;;;;;2.00;1.90;;;12.40;99.90;;;;;;10472815;28;20223;-83
2021/05/17 21:28:48;;;;;;;2.00;1.90;;;12.40;99.90;;;;;;10442693;28;20196;-80
2021/05/17 21:33:50;;;;;;;2.10;1.90;;;12.40;99.90;;;;;;10441608;28;20692;-80
2021/05/17 21:38:51;;;;;;;1.90;1.80;;;12.50;99.90;;;;;;10441080;28;20626;-80
2021/05/17 21:43:54;;;;;;;2.37;1.90;;;12.50;99.90;;;;;;10459244;28;20216;-81
2021/05/17 21:49:05;;;;;;;2.10;2.00;;;12.50;99.90;;;;;;10440932;28;20213;-81
2021/05/17 21:54:08;;;;;;;2.40;2.30;;;12.50;99.90;;;;;;10417352;28;20221;-81
2021/05/17 21:59:11;;;;;;;1.60;1.50;;;12.60;99.90;;;;;;10465244;28;20197;-82
2021/05/17 22:04:12;;;;;;;1.90;1.80;;;12.70;99.90;;;;;;10465590;28;20213;-83
2021/05/17 22:14:36;;;;;;;1.60;1.50;;;12.60;99.90;;;;;;10464109;28;20225;-83
2021/05/17 22:19:38;;;;;;;1.40;1.40;;;12.60;99.90;;;;;;10453760;28;20221;-80
2021/05/17 22:24:40;;;;;;;1.40;1.30;;;12.50;99.90;;;;;;10469211;28;20708;-80
2021/05/17 22:29:42;;;;;;;0.93;0.93;;;12.40;99.90;;;;;;10465968;28;20762;-79
2021/05/17 22:34:44;;;;;;;1.00;1.00;;;12.40;99.90;;;;;;10450774;28;20307;-82
2021/05/17 22:39:45;;;;;;;1.23;1.23;;;12.40;99.90;;;;;;10428851;28;20614;-82
2021/05/17 22:44:48;;;;;;;1.10;1.10;;;12.40;99.90;;;;;;10431848;28;20792;-82
2021/05/17 22:49:50;;;;;;;1.00;1.00;;;12.50;99.90;;;;;;10433705;28;20561;-84
2021/05/17 22:54:51;;;;;;;1.70;1.60;;;12.50;99.90;;;;;;10445323;28;20228;-82
2021/05/17 22:59:54;;;;;;;1.20;1.20;;;12.40;99.90;;;;;;10458312;28;20201;-82
2021/05/17 23:04:58;;;;;;;2.20;1.23;;;12.40;99.90;;;;;;10407580;28;20746;-81
2021/05/17 23:10:05;;;;;;;1.83;1.40;;;12.40;99.90;;;;;;10428127;28;20238;-80
2021/05/17 23:15:10;;;;;;;1.77;1.50;;;12.40;99.90;;;;;;10443031;28;20225;-80
2021/05/17 23:20:22;;;;;;;1.13;1.13;;;12.50;99.90;;;;;;10455755;28;20304;-81
2021/05/17 23:30:44;;;;;;;1.80;1.30;;;12.60;99.90;;;;;;10515511;28;20248;-81
2021/05/17 23:35:46;;;;;;;2.93;2.33;;;12.60;99.90;;;;;;10474867;28;20223;-84
2021/05/17 23:40:50;;;;;;;1.77;1.33;;;12.60;99.90;;;;;;10462332;28;20607;-81
2021/05/17 23:45:53;;;;;;;1.90;1.10;;;12.60;99.90;;;;;;10471553;28;20219;-82
2021/05/17 23:50:55;;;;;;;1.20;1.10;;;12.60;99.90;;;;;;10475899;28;20216;-82
2021/05/17 23:55:57;;;;;;;1.53;1.00;;;12.70;99.90;;;;;;10489292;28;20236;-81
